Time;durP1;ratioP1;P1;durP2;ratioP2;P2;SDS_P1;SDS_P2;PMS_P1;PMS_P2;Temp;Humidity;BMP_temperature;BMP_pressure;BME280_temperature;BME280_humidity;BME280_pressure;Samples;Min_cycle;Max_cycle;Signal;HPM_P1;HPM_P2
2022/04/17 00:02:19;;;;;;;5.93;2.10;;;;;;;6.68;45.27;100735.97;4466734;32;34751;-79
2022/04/17 00:05:06;;;;;;;4.47;2.00;;;;;;;6.79;45.06;100736.06;4455959;32;34705;-81
2022/04/17 00:07:52;;;;;;;6.32;2.30;;;;;;;6.96;43.45;100732.13;4465918;32;34462;-79
2022/04/17 00:10:38;;;;;;;6.45;2.50;;;;;;;6.51;45.19;100735.25;4465833;32;35060;-79
2022/04/17 00:13:25;;;;;;;9.90;3.70;;;;;;;7.43;44.71;100730.56;4465018;32;35142;-79
2022/04/17 00:16:11;;;;;;;8.18;4.45;;;;;;;6.80;44.59;100727.63;4464423;32;35528;-79
2022/04/17 00:18:58;;;;;;;6.72;3.30;;;;;;;6.53;42.77;100728.50;4466629;32;35979;-81
2022/04/17 00:21:44;;;;;;;4.40;2.20;;;;;;;6.25;41.91;100720.56;4456416;32;34639;-79
2022/04/17 00:24:30;;;;;;;6.37;2.28;;;;;;;6.23;42.27;100718.13;4465828;32;34086;-80
2022/04/17 00:27:17;;;;;;;5.20;2.20;;;;;;;6.55;40.48;100720.06;4466597;32;34201;-80
2022/04/17 00:30:03;;;;;;;5.22;1.90;;;;;;;6.63;39.63;100706.00;4466788;32;35612;-81
2022/04/17 00:32:50;;;;;;;2.37;1.23;;;;;;;6.63;40.05;100716.88;4465758;32;35549;-82
2022/04/17 00:35:36;;;;;;;3.60;1.25;;;;;;;6.24;39.08;100713.50;4464295;32;35067;-79
2022/04/17 00:38:22;;;;;;;2.30;1.20;;;;;;;6.37;38.70;100717.69;4454267;32;34265;-78
2022/04/17 00:41:08;;;;;;;2.50;1.30;;;;;;;6.51;39.04;100713.47;4467361;32;34950;-80
2022/04/17 00:43:54;;;;;;;2.72;1.17;;;;;;;6.17;39.54;100713.69;4465715;32;34386;-79
2022/04/17 00:46:40;;;;;;;2.08;1.10;;;;;;;6.72;40.03;100726.22;4465825;32;34969;-80
2022/04/17 00:49:27;;;;;;;2.90;1.10;;;;;;;6.42;39.82;100718.56;4464587;32;35464;-79
2022/04/17 00:52:14;;;;;;;2.40;1.17;;;;;;;6.37;39.05;100713.06;4466027;32;34573;-79
2022/04/17 00:55:04;;;;;;;2.08;1.00;;;;;;;6.24;39.33;100716.22;4463486;32;35377;-80
2022/04/17 00:57:50;;;;;;;3.35;1.42;;;;;;;6.22;38.84;100702.84;4465060;32;34085;-82
2022/04/17 01:00:37;;;;;;;4.65;1.00;;;;;;;6.15;38.70;100704.13;4465661;32;34705;-80
2022/04/17 01:03:23;;;;;;;2.40;1.10;;;;;;;6.04;38.70;100697.75;4455109;32;35951;-78
2022/04/17 01:06:10;;;;;;;2.78;1.08;;;;;;;6.42;38.97;100698.69;4465335;32;34543;-79
2022/04/17 01:08:58;;;;;;;1.70;1.10;;;;;;;6.14;39.79;100703.31;4466563;32;34093;-78
2022/04/17 01:11:45;;;;;;;2.25;1.35;;;;;;;6.13;39.06;100701.66;4452135;32;35572;-80
2022/04/17 01:14:31;;;;;;;1.67;1.10;;;;;;;6.22;38.48;100699.31;4455011;32;35020;-79
2022/04/17 01:17:17;;;;;;;2.30;0.90;;;;;;;6.11;39.04;100692.13;4465243;32;34096;-78
2022/04/17 01:20:04;;;;;;;4.50;1.20;;;;;;;6.22;38.67;100694.69;4464901;32;33973;-79
2022/04/17 01:26:55;;;;;;;3.00;1.15;;;;;;;6.45;39.21;100696.28;4465901;32;35543;-79
2022/04/17 01:29:02;;;;;;;2.97;1.10;;;;;;;6.54;38.80;100702.06;4463299;32;35523;-79
2022/04/17 01:31:48;;;;;;;1.92;1.00;;;;;;;7.09;37.93;100697.38;4455682;32;33422;-79
2022/04/17 01:34:36;;;;;;;1.95;1.00;;;;;;;6.96;38.62;100699.44;4465488;32;34726;-79
2022/04/17 01:37:22;;;;;;;1.80;1.00;;;;;;;6.69;37.83;100688.59;4464555;32;35925;-79
2022/04/17 01:40:09;;;;;;;1.50;0.90;;;;;;;6.42;38.89;100694.06;4464354;32;34072;-79
2022/04/17 01:42:55;;;;;;;3.42;1.20;;;;;;;6.78;38.42;100690.87;4466393;32;34634;-79
2022/04/17 01:45:42;;;;;;;2.60;1.17;;;;;;;6.55;40.01;100690.12;4463423;32;34282;-79
2022/04/17 01:48:28;;;;;;;2.70;1.23;;;;;;;7.10;37.26;100678.00;4454118;32;34921;-79
2022/04/17 01:51:14;;;;;;;3.50;1.10;;;;;;;6.45;38.14;100687.28;4466218;32;34592;-79
2022/04/17 01:54:02;;;;;;;3.00;1.00;;;;;;;5.99;39.28;100693.06;4453660;32;34059;-79
2022/04/17 01:56:49;;;;;;;2.45;1.35;;;;;;;6.03;40.20;100683.34;4453659;32;34528;-79
2022/04/17 01:59:35;;;;;;;2.45;1.10;;;;;;;5.87;39.69;100685.03;4463832;32;34936;-79
2022/04/17 02:02:22;;;;;;;2.75;1.17;;;;;;;6.23;38.59;100674.56;4461918;32;34112;-79
2022/04/17 02:05:09;;;;;;;2.10;1.00;;;;;;;6.87;37.80;100679.22;4464570;32;34218;-79
2022/04/17 02:07:55;;;;;;;1.58;0.95;;;;;;;7.31;36.84;100681.69;4465172;32;34573;-79
2022/04/17 02:10:42;;;;;;;3.75;1.17;;;;;;;6.65;37.10;100675.75;4465372;32;34998;-79
2022/04/17 02:13:29;;;;;;;2.05;1.00;;;;;;;6.29;38.52;100675.44;4465615;32;35275;-78
2022/04/17 02:16:19;;;;;;;1.70;0.98;;;;;;;6.34;38.57;100672.75;4465194;32;33899;-79
2022/04/17 02:19:05;;;;;;;2.55;1.10;;;;;;;6.02;37.98;100669.97;4455134;32;34539;-79
2022/04/17 02:21:52;;;;;;;1.42;0.90;;;;;;;5.75;38.32;100662.59;4454780;32;35981;-79
2022/04/17 02:24:38;;;;;;;3.67;1.00;;;;;;;5.96;38.74;100669.09;4456021;32;35019;-79
2022/04/17 02:27:25;;;;;;;2.62;0.82;;;;;;;6.12;38.16;100661.94;4467251;32;34203;-79
2022/04/17 02:30:11;;;;;;;1.48;0.75;;;;;;;5.96;38.45;100658.22;4466250;32;35496;-79
2022/04/17 02:32:58;;;;;;;3.05;1.08;;;;;;;6.23;38.21;100655.53;4466070;32;34612;-80
2022/04/17 02:35:44;;;;;;;1.40;0.75;;;;;;;6.25;37.27;100653.34;4454300;32;35306;-79
2022/04/17 02:38:31;;;;;;;2.72;1.00;;;;;;;5.75;39.13;100649.00;4461419;32;34217;-80
2022/04/17 02:41:17;;;;;;;1.65;0.80;;;;;;;5.36;39.59;100646.31;4466317;32;35576;-79
2022/04/17 02:44:06;;;;;;;1.58;1.00;;;;;;;5.41;39.14;100635.53;4466278;32;34848;-79
2022/04/17 02:49:58;;;;;;;1.98;0.95;;;;;;;5.33;39.42;100622.38;4465597;32;34983;-79
2022/04/17 02:52:45;;;;;;;1.60;0.77;;;;;;;5.71;37.86;100626.09;4467908;32;34862;-79
2022/04/17 02:55:32;;;;;;;1.73;0.85;;;;;;;5.37;38.68;100628.13;4455722;32;34988;-78
2022/04/17 02:58:18;;;;;;;3.17;1.30;;;;;;;5.91;37.94;100638.28;4467556;32;35394;-78
2022/04/17 03:07:15;;;;;;;1.45;0.75;;;;;;;5.44;39.43;100633.37;4463711;32;35022;-80
2022/04/17 03:10:02;;;;;;;2.45;0.90;;;;;;;5.45;38.59;100652.16;4465669;32;33909;-79
2022/04/17 03:12:48;;;;;;;1.67;0.82;;;;;;;5.08;39.02;100646.47;4467409;32;34198;-78
2022/04/17 03:15:39;;;;;;;1.10;0.70;;;;;;;5.35;38.75;100658.28;4467445;32;34642;-79
2022/04/17 03:18:25;;;;;;;2.55;1.00;;;;;;;5.10;39.99;100645.16;4463333;32;34944;-79
2022/04/17 03:21:12;;;;;;;1.33;0.70;;;;;;;5.10;38.68;100657.94;4466413;32;35138;-78
2022/04/17 03:23:58;;;;;;;2.17;0.82;;;;;;;5.23;39.20;100654.84;4466070;32;33788;-79
2022/04/17 03:26:44;;;;;;;1.73;1.00;;;;;;;4.73;39.32;100666.59;4467417;32;35423;-78
2022/04/17 03:29:31;;;;;;;2.17;1.12;;;;;;;5.03;39.64;100657.25;4467732;32;35058;-79
2022/04/17 03:32:17;;;;;;;1.50;0.70;;;;;;;4.84;39.33;100673.84;4465521;32;34050;-81
2022/04/17 03:35:04;;;;;;;1.83;0.75;;;;;;;4.72;39.65;100671.22;4455140;32;34109;-80
2022/04/17 03:37:51;;;;;;;2.55;1.00;;;;;;;4.76;39.40;100676.16;4466438;32;34651;-79
2022/04/17 03:40:37;;;;;;;1.50;0.70;;;;;;;4.70;39.80;100672.53;4467498;32;35683;-78
2022/04/17 03:43:23;;;;;;;3.12;0.80;;;;;;;4.78;39.67;100680.25;4465934;32;35089;-78
2022/04/17 03:46:10;;;;;;;2.28;1.08;;;;;;;4.92;39.84;100684.28;4467645;32;36520;-79
2022/04/17 03:48:56;;;;;;;1.92;1.00;;;;;;;4.68;39.97;100677.37;4455772;32;35267;-82
2022/04/17 03:51:43;;;;;;;1.65;0.98;;;;;;;5.03;39.44;100681.72;4466625;32;35026;-79
2022/04/17 03:54:29;;;;;;;1.52;0.80;;;;;;;5.08;39.26;100695.38;4465242;32;34758;-80
2022/04/17 03:57:15;;;;;;;1.17;0.80;;;;;;;4.65;39.24;100683.28;4465777;32;34059;-78
2022/04/17 04:00:04;;;;;;;1.85;1.00;;;;;;;4.94;39.13;100690.28;4465345;32;35752;-79
2022/04/17 04:02:56;;;;;;;3.33;1.08;;;;;;;4.88;40.01;100690.44;4465910;32;35647;-78
2022/04/17 04:05:43;;;;;;;2.15;0.93;;;;;;;5.08;39.37;100695.38;4466345;32;33453;-79
2022/04/17 04:08:29;;;;;;;1.83;0.73;;;;;;;4.89;39.34;100690.19;4466518;32;33867;-79
2022/04/17 04:11:16;;;;;;;2.05;1.02;;;;;;;4.75;39.31;100702.44;4466773;32;34673;-78
2022/04/17 04:14:04;;;;;;;1.77;0.80;;;;;;;4.90;40.21;100702.72;4454484;32;34897;-79
2022/04/17 04:16:50;;;;;;;2.25;1.02;;;;;;;5.16;39.70;100697.69;4465909;32;35384;-79
2022/04/17 04:19:37;;;;;;;2.03;1.10;;;;;;;5.54;39.42;100693.31;4466978;32;34187;-79
2022/04/17 04:22:23;;;;;;;1.70;0.90;;;;;;;4.59;40.54;100692.44;4465447;32;34614;-78
2022/04/17 04:25:09;;;;;;;1.67;0.65;;;;;;;4.83;40.20;100699.31;4454263;32;35057;-78
2022/04/17 04:31:01;;;;;;;2.12;1.00;;;;;;;4.72;41.01;100701.06;4464317;32;34751;-78
2022/04/17 04:33:48;;;;;;;2.40;0.93;;;;;;;4.76;41.88;100708.72;4465553;32;34751;-79
2022/04/17 04:36:34;;;;;;;3.33;0.90;;;;;;;5.23;39.78;100702.94;4466704;32;34539;-78
2022/04/17 04:39:20;;;;;;;2.25;1.15;;;;;;;4.84;41.71;100701.00;4466284;32;34568;-78
2022/04/17 04:42:07;;;;;;;2.28;1.00;;;;;;;4.67;42.31;100702.88;4466553;32;34127;-79
2022/04/17 04:47:58;;;;;;;2.72;1.05;;;;;;;4.58;41.41;100701.63;4466697;32;35979;-78
2022/04/17 04:50:44;;;;;;;1.40;0.75;;;;;;;4.73;41.20;100707.31;4466704;32;35533;-78
2022/04/17 04:53:30;;;;;;;2.67;0.90;;;;;;;4.69;41.51;100706.16;4464578;32;34126;-79
2022/04/17 04:56:17;;;;;;;2.37;1.10;;;;;;;5.07;40.23;100704.59;4466182;32;34683;-78
2022/04/17 04:59:04;;;;;;;2.03;1.00;;;;;;;5.24;39.76;100702.69;4465874;32;35123;-79
2022/04/17 05:01:51;;;;;;;1.85;0.80;;;;;;;5.18;39.74;100709.13;4465746;32;34605;-79
2022/04/17 05:04:37;;;;;;;2.83;1.17;;;;;;;5.10;39.36;100704.09;4454856;32;34601;-78
2022/04/17 05:07:24;;;;;;;3.03;0.90;;;;;;;5.25;39.65;100700.78;4465729;32;33393;-77
2022/04/17 05:10:10;;;;;;;3.05;1.17;;;;;;;5.41;39.45;100706.19;4465887;32;36056;-79
2022/04/17 05:12:57;;;;;;;2.72;1.05;;;;;;;4.95;39.24;100700.09;4462938;32;34544;-78
2022/04/17 05:15:43;;;;;;;2.80;1.00;;;;;;;4.90;39.60;100713.56;4465557;32;34740;-79
2022/04/17 05:18:29;;;;;;;3.20;1.30;;;;;;;5.01;39.07;100717.28;4465080;32;35216;-79
2022/04/17 05:21:19;;;;;;;2.35;1.10;;;;;;;5.28;39.71;100711.97;4455188;32;34641;-78
2022/04/17 05:24:06;;;;;;;2.55;0.82;;;;;;;5.09;38.58;100705.16;4453836;32;35689;-78
2022/04/17 05:26:52;;;;;;;2.30;0.82;;;;;;;5.24;38.79;100699.16;4464378;32;34648;-79
2022/04/17 05:29:39;;;;;;;1.60;0.80;;;;;;;5.53;39.75;100702.53;4463356;32;34671;-80
2022/04/17 05:32:26;;;;;;;2.37;0.90;;;;;;;5.22;38.74;100707.53;4464317;32;36083;-79
2022/04/17 05:35:13;;;;;;;2.33;0.90;;;;;;;6.02;38.49;100700.72;4464956;32;35485;-79
2022/04/17 05:37:59;;;;;;;2.55;1.00;;;;;;;6.11;37.87;100703.00;4466509;32;34208;-80
2022/04/17 05:40:51;;;;;;;3.00;1.27;;;;;;;5.63;38.22;100708.09;4466079;32;34620;-79
2022/04/17 05:43:38;;;;;;;2.40;0.80;;;;;;;6.17;38.57;100708.22;4465549;32;34462;-80
2022/04/17 05:46:27;;;;;;;1.80;0.95;;;;;;;5.88;37.32;100707.59;4466898;32;34572;-78
2022/04/17 05:49:13;;;;;;;2.35;1.00;;;;;;;5.89;38.39;100700.25;4464005;32;34161;-78
2022/04/17 05:52:00;;;;;;;1.83;1.00;;;;;;;6.36;38.57;100707.91;4465607;32;34638;-78
2022/04/17 05:54:46;;;;;;;2.90;1.42;;;;;;;6.40;37.43;100700.84;4465636;32;35202;-78
2022/04/17 05:57:32;;;;;;;3.35;1.17;;;;;;;6.13;38.38;100700.84;4467616;32;35121;-78
2022/04/17 06:00:18;;;;;;;3.33;1.00;;;;;;;5.93;37.14;100701.41;4455307;32;34263;-77
2022/04/17 06:03:05;;;;;;;1.60;0.80;;;;;;;6.36;38.52;100705.19;4465382;32;34798;-79
2022/04/17 06:05:51;;;;;;;2.08;1.10;;;;;;;6.04;37.61;100701.31;4466492;32;34951;-78
2022/04/17 06:08:38;;;;;;;3.97;1.20;;;;;;;6.64;37.13;100702.19;4465568;32;35475;-79
2022/04/17 06:11:24;;;;;;;1.67;0.98;;;;;;;5.98;37.29;100702.31;4465724;32;34242;-80
2022/04/17 06:14:10;;;;;;;2.83;1.30;;;;;;;5.71;38.52;100699.50;4453038;32;34633;-80
2022/04/17 06:16:57;;;;;;;2.45;1.10;;;;;;;6.13;37.81;100701.66;4454654;32;34723;-77
2022/04/17 06:19:43;;;;;;;2.50;1.37;;;;;;;6.27;38.44;100713.81;4455153;32;34630;-79
2022/04/17 06:22:29;;;;;;;2.75;1.25;;;;;;;6.24;38.05;100708.88;4454437;32;34057;-78
2022/04/17 06:25:16;;;;;;;2.03;0.98;;;;;;;6.45;38.55;100709.88;4466244;32;34707;-79
2022/04/17 06:28:02;;;;;;;2.92;1.27;;;;;;;6.60;37.29;100706.47;4466096;32;34948;-78
2022/04/17 06:30:49;;;;;;;2.15;1.20;;;;;;;6.06;38.35;100707.31;4465696;32;34372;-79
2022/04/17 06:33:35;;;;;;;2.20;1.20;;;;;;;6.27;38.31;100710.25;4466405;32;35123;-79
2022/04/17 06:36:21;;;;;;;1.80;1.00;;;;;;;6.48;37.65;100703.94;4467581;32;34635;-78
2022/04/17 06:39:07;;;;;;;2.05;1.00;;;;;;;6.85;37.89;100703.16;4467923;32;34806;-78
2022/04/17 06:41:54;;;;;;;3.03;1.10;;;;;;;6.97;37.98;100711.16;4462373;32;35583;-78
2022/04/17 06:44:40;;;;;;;3.25;1.20;;;;;;;6.60;37.57;100701.03;4465007;32;34066;-78
2022/04/17 06:47:30;;;;;;;2.05;0.90;;;;;;;6.81;39.20;100698.50;4466493;32;34378;-77
2022/04/17 06:50:18;;;;;;;2.17;1.30;;;;;;;6.93;38.14;100705.41;4455460;32;35917;-78
2022/04/17 06:53:05;;;;;;;2.62;1.30;;;;;;;6.84;36.75;100706.16;4457896;32;34638;-77
2022/04/17 06:55:52;;;;;;;2.33;1.10;;;;;;;7.52;36.95;100706.34;4464013;32;33936;-81
2022/04/17 06:58:39;;;;;;;5.15;2.12;;;;;;;6.97;36.81;100714.72;4465915;32;33648;-78
2022/04/17 07:01:25;;;;;;;2.75;1.40;;;;;;;6.83;37.42;100721.69;4466294;32;35016;-77
2022/04/17 07:04:12;;;;;;;2.80;1.20;;;;;;;7.17;37.85;100714.06;4464399;32;35497;-77
2022/04/17 07:06:58;;;;;;;2.33;1.30;;;;;;;7.71;37.88;100709.44;4466708;32;33573;-77
2022/04/17 07:09:45;;;;;;;2.22;1.12;;;;;;;7.71;35.47;100709.44;4452516;32;35544;-76
2022/04/17 07:12:31;;;;;;;2.37;0.98;;;;;;;7.77;35.99;100705.63;4465483;32;35135;-76
2022/04/17 07:15:17;;;;;;;3.00;1.15;;;;;;;8.03;36.32;100712.84;4466048;32;35468;-78
2022/04/17 07:18:03;;;;;;;3.85;1.30;;;;;;;7.50;35.58;100703.06;4464319;32;35240;-75
2022/04/17 07:20:50;;;;;;;2.40;1.10;;;;;;;7.90;36.37;100707.87;4461074;32;35739;-75
2022/04/17 07:23:36;;;;;;;2.12;0.93;;;;;;;8.14;37.71;100713.72;4464878;32;34386;-76
2022/04/17 07:26:23;;;;;;;1.58;0.85;;;;;;;7.83;36.26;100713.59;4466005;32;36150;-76
2022/04/17 07:29:09;;;;;;;3.05;0.90;;;;;;;8.38;34.71;100714.03;4465475;32;33741;-75
2022/04/17 07:31:55;;;;;;;1.48;1.00;;;;;;;8.40;35.88;100717.34;4452806;32;35073;-76
2022/04/17 07:34:42;;;;;;;3.15;0.90;;;;;;;7.95;34.92;100710.63;4462399;32;35718;-77
2022/04/17 07:37:31;;;;;;;2.95;1.27;;;;;;;8.17;33.81;100707.72;4463342;32;35026;-76
2022/04/17 07:40:20;;;;;;;2.33;1.10;;;;;;;8.24;34.38;100712.91;4463122;32;35562;-75
2022/04/17 07:43:07;;;;;;;1.70;1.20;;;;;;;8.38;34.11;100716.75;4461735;32;34010;-75
2022/04/17 07:45:53;;;;;;;2.28;1.10;;;;;;;8.21;34.13;100708.00;4464030;32;34531;-75
2022/04/17 07:48:40;;;;;;;3.40;1.45;;;;;;;8.49;34.90;100704.81;4466337;32;34379;-75
2022/04/17 07:51:26;;;;;;;3.00;1.20;;;;;;;8.16;35.15;100700.59;4464732;32;34736;-77
2022/04/17 07:54:12;;;;;;;2.55;1.20;;;;;;;8.54;34.35;100702.09;4464497;32;35132;-80
2022/04/17 07:56:58;;;;;;;3.90;1.35;;;;;;;7.92;34.24;100694.81;4464143;32;35092;-78
2022/04/17 07:59:45;;;;;;;2.87;1.17;;;;;;;8.74;35.53;100700.47;4462431;32;35116;-79
2022/04/17 08:03:06;;;;;;;2.20;1.05;;;;;;;9.31;34.88;100698.50;4462854;32;35142;-78
2022/04/17 08:05:53;;;;;;;1.60;0.93;;;;;;;9.57;33.30;100691.88;4465689;32;35719;-77
2022/04/17 08:08:39;;;;;;;2.97;1.48;;;;;;;8.70;32.97;100697.44;4463782;32;34925;-77
2022/04/17 08:11:26;;;;;;;3.70;1.40;;;;;;;8.76;33.56;100692.78;4466203;32;35499;-78
2022/04/17 08:14:12;;;;;;;2.53;1.20;;;;;;;8.30;33.37;100684.53;4462835;32;33593;-77
2022/04/17 08:16:58;;;;;;;3.30;1.30;;;;;;;8.35;32.91;100681.81;4462900;32;34106;-78
2022/04/17 08:19:45;;;;;;;2.05;1.08;;;;;;;8.28;35.37;100673.03;4461187;32;34993;-77
2022/04/17 08:22:31;;;;;;;2.58;1.00;;;;;;;9.04;34.22;100682.41;4462011;32;34515;-77
2022/04/17 08:25:17;;;;;;;2.15;1.10;;;;;;;9.63;33.45;100673.50;4463338;32;33666;-76
2022/04/17 08:28:04;;;;;;;2.17;1.00;;;;;;;9.69;34.57;100672.38;4465752;32;34321;-77
2022/04/17 08:30:50;;;;;;;3.05;1.10;;;;;;;9.84;34.21;100666.03;4463297;32;34901;-77
2022/04/17 08:33:37;;;;;;;5.12;1.35;;;;;;;10.30;33.09;100661.16;4459160;32;34729;-76
2022/04/17 08:36:23;;;;;;;1.45;1.00;;;;;;;8.86;32.93;100675.59;4451596;32;33608;-77
2022/04/17 08:39:09;;;;;;;2.90;1.42;;;;;;;9.61;32.43;100659.28;4453245;32;34549;-76
2022/04/17 08:41:58;;;;;;;3.10;1.45;;;;;;;8.86;33.88;100660.00;4464942;32;36028;-77
2022/04/17 08:44:44;;;;;;;3.15;1.40;;;;;;;9.40;33.59;100659.34;4452235;32;34677;-79
2022/04/17 08:47:32;;;;;;;4.40;1.50;;;;;;;9.86;31.99;100661.09;4453303;32;33994;-77
2022/04/17 08:50:20;;;;;;;3.55;1.50;;;;;;;9.91;35.24;100653.69;4464328;32;34131;-77
2022/04/17 08:53:06;;;;;;;2.60;1.35;;;;;;;10.61;30.80;100649.94;4465168;32;34798;-78
2022/04/17 08:55:52;;;;;;;2.05;1.30;;;;;;;10.39;32.13;100642.19;4462933;32;35147;-78
2022/04/17 08:58:39;;;;;;;2.65;1.25;;;;;;;10.95;31.67;100652.66;4463763;32;35053;-78
2022/04/17 09:01:26;;;;;;;1.58;1.00;;;;;;;9.79;31.28;100639.53;4463786;32;35605;-77
2022/04/17 09:04:13;;;;;;;2.97;1.30;;;;;;;9.66;33.46;100638.19;4450006;32;35472;-78
2022/04/17 09:07:00;;;;;;;2.20;1.10;;;;;;;10.27;31.72;100633.50;4459215;32;35342;-79
2022/04/17 09:09:53;;;;;;;2.58;1.20;;;;;;;10.54;31.99;100616.59;4460936;32;33537;-77
2022/04/17 09:12:44;;;;;;;1.95;1.10;;;;;;;10.48;30.83;100629.50;4461200;32;34807;-77
2022/04/17 09:15:35;;;;;;;1.77;1.20;;;;;;;11.11;32.51;100617.69;4463349;32;36097;-77
2022/04/17 09:18:22;;;;;;;2.75;1.27;;;;;;;11.21;31.40;100625.81;4463383;32;35990;-78
2022/04/17 09:21:08;;;;;;;5.72;1.83;;;;;;;11.16;30.93;100612.16;4452810;32;33555;-78
2022/04/17 09:24:12;;;;;;;3.62;1.35;;;;;;;11.18;30.24;100620.91;4462528;32;35582;-78
2022/04/17 09:26:59;;;;;;;2.55;1.00;;;;;;;9.97;31.46;100609.84;4462682;32;34931;-79
2022/04/17 09:29:45;;;;;;;2.12;1.12;;;;;;;10.00;31.95;100617.50;4463700;32;33229;-78
2022/04/17 09:32:32;;;;;;;2.33;1.10;;;;;;;10.80;32.40;100601.53;4462430;32;34127;-80
2022/04/17 09:35:22;;;;;;;2.85;1.27;;;;;;;11.14;33.51;100583.38;4460730;32;35625;-78
2022/04/17 09:38:09;;;;;;;2.65;1.15;;;;;;;11.58;30.39;100594.06;4452729;32;34939;-84
2022/04/17 09:41:10;;;;;;;1.90;0.98;;;;;;;11.79;31.05;100591.09;4463955;32;34312;-81
2022/04/17 09:43:56;;;;;;;2.67;1.58;;;;;;;12.26;29.82;100589.31;4463727;32;35136;-83
2022/04/17 09:46:56;;;;;;;2.45;1.17;;;;;;;12.34;29.58;100581.19;4462227;32;34942;-83
2022/04/17 09:49:53;;;;;;;1.80;1.00;;;;;;;12.30;29.43;100584.88;4465812;32;35447;-83
2022/04/17 09:52:45;;;;;;;2.40;1.08;;;;;;;11.95;30.69;100576.03;4466055;32;35410;-85
2022/04/17 09:55:38;;;;;;;3.25;1.20;;;;;;;12.98;30.95;100570.47;4454717;32;34070;-84
2022/04/17 09:58:24;;;;;;;2.85;1.40;;;;;;;13.02;28.25;100571.47;4442973;32;34301;-84
2022/04/17 10:01:15;;;;;;;2.80;1.20;;;;;;;11.63;30.40;100552.84;4462127;32;34736;-82
2022/04/17 10:04:02;;;;;;;6.32;0.95;;;;;;;13.03;28.78;100562.13;4461724;32;34435;-82
2022/04/17 10:06:59;;;;;;;1.85;1.02;;;;;;;11.49;28.18;100557.44;4465147;32;34005;-81
2022/04/17 10:09:46;;;;;;;1.75;1.00;;;;;;;11.88;30.87;100567.38;4463082;32;34615;-81
2022/04/17 10:12:34;;;;;;;1.73;1.05;;;;;;;11.61;30.04;100557.84;4463308;32;34402;-81
2022/04/17 10:15:21;;;;;;;1.48;0.90;;;;;;;12.53;28.86;100550.13;4465205;32;34662;-81
2022/04/17 10:18:07;;;;;;;2.00;1.20;;;;;;;11.35;29.49;100545.53;4462304;32;33221;-81
2022/04/17 10:20:55;;;;;;;1.77;1.20;;;;;;;11.63;29.18;100541.87;4461884;32;34927;-81
2022/04/17 10:23:43;;;;;;;2.33;1.20;;;;;;;10.90;29.32;100539.47;4455330;32;34624;-82
2022/04/17 10:26:38;;;;;;;2.12;1.27;;;;;;;10.57;29.07;100522.84;4465148;32;34438;-81
2022/04/17 10:29:36;;;;;;;2.60;1.02;;;;;;;10.26;31.20;100523.09;4466287;32;33623;-82
2022/04/17 10:32:47;;;;;;;2.25;1.00;;;;;;;10.49;31.38;100516.06;4466142;32;34013;-81
2022/04/17 10:36:02;;;;;;;3.50;0.90;;;;;;;12.08;29.40;100519.53;4464759;32;34673;-82
2022/04/17 10:39:18;;;;;;;1.00;0.73;;;;;;;12.96;29.26;100523.19;4466432;32;35398;-78
2022/04/17 10:42:08;;;;;;;2.40;1.00;;;;;;;12.69;27.80;100515.72;4458897;32;34015;-78
2022/04/17 10:45:05;;;;;;;3.45;1.20;;;;;;;11.64;28.62;100513.31;4464752;32;34676;-78
2022/04/17 10:48:02;;;;;;;1.92;0.90;;;;;;;12.09;28.46;100502.75;4461795;32;34835;-78
2022/04/17 10:50:49;;;;;;;3.17;1.08;;;;;;;11.96;28.44;100503.53;4458932;32;35002;-79
2022/04/17 10:53:35;;;;;;;1.58;0.80;;;;;;;12.88;26.55;100504.63;4464217;32;34151;-78
2022/04/17 10:56:21;;;;;;;1.12;0.80;;;;;;;13.50;26.58;100505.00;4464526;32;34638;-80
2022/04/17 10:59:17;;;;;;;3.12;0.88;;;;;;;13.79;24.41;100492.78;4465417;32;34526;-80
2022/04/17 11:02:21;;;;;;;1.23;0.80;;;;;;;14.59;24.21;100499.34;4452657;32;35391;-80
2022/04/17 11:05:10;;;;;;;1.42;0.88;;;;;;;13.69;26.08;100487.53;4450912;32;34653;-80
2022/04/17 11:08:17;;;;;;;3.22;1.90;;;;;;;11.78;24.94;100485.94;4463436;32;33741;-79
2022/04/17 11:11:03;;;;;;;1.05;0.70;;;;;;;12.41;24.41;100487.38;4452529;32;34980;-80
2022/04/17 11:14:13;;;;;;;1.20;0.75;;;;;;;12.97;24.47;100478.03;4465589;32;35531;-80
2022/04/17 11:17:01;;;;;;;1.40;0.80;;;;;;;14.74;25.76;100462.28;4463601;32;33860;-79
2022/04/17 11:19:48;;;;;;;2.83;1.37;;;;;;;13.81;24.27;100463.00;4464120;32;34209;-81
2022/04/17 11:22:35;;;;;;;1.83;0.88;;;;;;;12.73;24.96;100461.75;4465929;32;34405;-80
2022/04/17 11:25:21;;;;;;;3.35;1.00;;;;;;;12.62;25.56;100463.06;4464537;32;34433;-79
2022/04/17 11:28:07;;;;;;;2.58;1.05;;;;;;;12.79;25.53;100455.03;4465876;32;34672;-80
2022/04/17 11:31:07;;;;;;;1.62;0.80;;;;;;;14.04;24.68;100452.78;4463382;32;34245;-80
2022/04/17 11:34:00;;;;;;;1.73;0.90;;;;;;;14.87;24.46;100454.19;4460802;32;35503;-80
2022/04/17 11:36:47;;;;;;;1.15;0.70;;;;;;;14.74;24.72;100450.41;4459373;32;34213;-79
2022/04/17 11:39:34;;;;;;;1.85;0.80;;;;;;;13.49;23.67;100442.84;4461711;32;33432;-79
2022/04/17 11:42:21;;;;;;;1.10;0.80;;;;;;;14.65;25.43;100447.63;4463162;32;34637;-79
2022/04/17 11:45:07;;;;;;;1.87;0.90;;;;;;;14.20;25.71;100442.16;4464835;32;36156;-79
2022/04/17 11:47:55;;;;;;;2.37;0.90;;;;;;;15.49;24.41;100437.41;4464231;32;35500;-77
2022/04/17 11:50:42;;;;;;;1.58;0.70;;;;;;;15.40;22.67;100436.59;4463694;32;34728;-79
2022/04/17 11:53:31;;;;;;;2.72;1.00;;;;;;;14.95;23.83;100431.34;4466789;32;34278;-80
2022/04/17 11:56:17;;;;;;;1.67;0.82;;;;;;;14.30;24.24;100433.66;4465398;32;34953;-81
2022/04/17 11:59:04;;;;;;;1.70;0.90;;;;;;;15.24;26.28;100441.78;4465011;32;35984;-79
2022/04/17 12:02:09;;;;;;;1.60;0.90;;;;;;;15.98;23.20;100440.81;4468084;32;36698;-78
2022/04/17 12:05:08;;;;;;;1.60;0.93;;;;;;;15.06;22.41;100436.22;4463792;32;34647;-79
2022/04/17 12:08:02;;;;;;;1.23;0.60;;;;;;;15.44;22.14;100432.06;4462421;32;35860;-79
2022/04/17 12:10:53;;;;;;;1.45;0.80;;;;;;;14.80;22.90;100416.84;4463184;32;34945;-80
2022/04/17 12:13:39;;;;;;;1.27;0.80;;;;;;;15.39;22.17;100427.50;4464017;32;34298;-79
2022/04/17 12:16:27;;;;;;;1.70;0.80;;;;;;;16.36;19.95;100416.03;4463061;32;34703;-78
2022/04/17 12:19:16;;;;;;;2.15;0.90;;;;;;;16.31;20.11;100407.09;4463828;32;34992;-79
2022/04/17 12:22:13;;;;;;;1.52;0.82;;;;;;;18.05;20.02;100400.38;4464589;32;34153;-80
2022/04/17 12:24:59;;;;;;;2.20;1.12;;;;;;;17.56;20.24;100406.53;4453003;32;33939;-80
2022/04/17 12:27:49;;;;;;;1.67;0.70;;;;;;;13.36;24.14;100413.41;4466811;32;34489;-80
2022/04/17 12:30:36;;;;;;;2.37;1.00;;;;;;;11.65;26.30;100410.63;4465626;32;34657;-79
2022/04/17 12:33:25;;;;;;;1.67;0.98;;;;;;;13.00;27.12;100411.41;4453765;32;34120;-79
2022/04/17 12:36:13;;;;;;;1.33;0.70;;;;;;;13.62;24.19;100404.53;4464347;32;34064;-80
2022/04/17 12:39:02;;;;;;;1.30;0.80;;;;;;;13.72;26.48;100396.03;4464624;32;36157;-80
2022/04/17 12:41:51;;;;;;;1.27;0.80;;;;;;;14.17;22.94;100387.69;4464265;32;34905;-80
2022/04/17 12:44:37;;;;;;;2.20;0.80;;;;;;;15.24;24.29;100387.38;4463273;32;36125;-80
2022/04/17 12:47:23;;;;;;;2.10;0.88;;;;;;;15.54;23.44;100384.78;4466306;32;33646;-80
2022/04/17 12:50:12;;;;;;;1.62;1.00;;;;;;;15.34;22.52;100385.41;4464217;32;34758;-80
2022/04/17 12:53:01;;;;;;;1.80;1.10;;;;;;;15.10;21.93;100386.72;4464758;32;35900;-80
2022/04/17 12:55:52;;;;;;;2.53;0.98;;;;;;;15.50;21.76;100383.78;4467397;32;33374;-80
2022/04/17 12:58:55;;;;;;;1.50;0.80;;;;;;;12.11;24.22;100365.91;4465057;32;33177;-80
2022/04/17 13:01:46;;;;;;;3.15;0.85;;;;;;;12.82;24.67;100365.59;4463849;32;34672;-80
2022/04/17 13:04:39;;;;;;;;;;;;;;;14.66;24.02;100372.03;4465315;32;34607;-80
2022/04/17 13:07:33;;;;;;;1.83;1.00;;;;;;;14.57;24.26;100368.41;4464212;32;35044;-81
2022/04/17 13:10:29;;;;;;;1.73;0.82;;;;;;;14.35;22.54;100350.00;4453736;32;35263;-79
2022/04/17 13:13:15;;;;;;;1.42;0.80;;;;;;;15.01;24.26;100353.59;4462523;32;99172;-79
2022/04/17 13:16:02;;;;;;;1.45;0.95;;;;;;;14.89;22.72;100355.37;4466167;32;34907;-79
2022/04/17 13:18:53;;;;;;;3.42;1.00;;;;;;;14.40;21.27;100342.41;4464829;32;34275;-81
2022/04/17 13:21:53;;;;;;;1.60;0.88;;;;;;;14.68;22.36;100355.94;4465848;32;35212;-80
2022/04/17 13:24:42;;;;;;;1.62;0.88;;;;;;;15.48;21.45;100363.97;4466206;32;34719;-80
2022/04/17 13:27:29;;;;;;;2.33;0.98;;;;;;;14.57;22.74;100357.38;4464463;32;35638;-80
2022/04/17 13:30:17;;;;;;;1.98;0.60;;;;;;;15.47;22.21;100351.31;4463537;32;35725;-81